Pintadas, Brazil
Current Conditions -  °F | °C
As of 5:00 AM on Wednesday 22 Oct 2014 (Local Time) from SBSV Reporting Station
Broken Clouds Broken Clouds  
Wind Chill: 77°   Ceiling: 7000
Heat Index: 79°   Visibility: 6mi
Dew Point: 66°   Wind: 8mph
Humidity: 69%   Direction: 100°E
Pressure: 29.97"   Gusts: NA
Location:  11.81°S, 39.92°W
Report Text: SBSV 220800Z 10007KT 9999 SCT017 BKN070 25/19 Q1015
Loading
Personal Weather Stations






























Interactive Weather Map
Tropical Storm Tracking
New forecast layout! Learn more

10-Day Weather Forecast

Advertisements
Track Severe Weather on mobile